sensor_id;sensor_type;location;lat;lon;timestamp;P1;durP1;ratioP1;P2;durP2;ratioP2
14203;SDS011;7185;51.854;6.622;2023-12-20T00:01:18;13.13;;;6.57;;
14203;SDS011;7185;51.854;6.622;2023-12-20T00:03:49;16.83;;;6.50;;
14203;SDS011;7185;51.854;6.622;2023-12-20T00:06:22;16.90;;;6.47;;
14203;SDS011;7185;51.854;6.622;2023-12-20T00:08:54;17.67;;;6.25;;
14203;SDS011;7185;51.854;6.622;2023-12-20T00:11:26;21.15;;;6.50;;
14203;SDS011;7185;51.854;6.622;2023-12-20T00:13:58;15.18;;;5.72;;
14203;SDS011;7185;51.854;6.622;2023-12-20T00:16:29;18.45;;;5.75;;
14203;SDS011;7185;51.854;6.622;2023-12-20T00:19:02;22.25;;;6.07;;
14203;SDS011;7185;51.854;6.622;2023-12-20T00:21:35;14.02;;;5.68;;
14203;SDS011;7185;51.854;6.622;2023-12-20T00:24:06;11.73;;;4.68;;
14203;SDS011;7185;51.854;6.622;2023-12-20T00:26:38;11.82;;;4.80;;
14203;SDS011;7185;51.854;6.622;2023-12-20T00:29:10;8.77;;;4.53;;
14203;SDS011;7185;51.854;6.622;2023-12-20T00:31:41;12.52;;;4.07;;
14203;SDS011;7185;51.854;6.622;2023-12-20T00:34:13;12.43;;;4.22;;
14203;SDS011;7185;51.854;6.622;2023-12-20T00:36:46;12.73;;;3.42;;
14203;SDS011;7185;51.854;6.622;2023-12-20T00:39:18;13.45;;;3.80;;
14203;SDS011;7185;51.854;6.622;2023-12-20T00:41:50;15.95;;;3.65;;
14203;SDS011;7185;51.854;6.622;2023-12-20T00:44:21;16.35;;;3.80;;
14203;SDS011;7185;51.854;6.622;2023-12-20T00:46:53;16.23;;;4.00;;
14203;SDS011;7185;51.854;6.622;2023-12-20T00:49:25;15.18;;;3.65;;
14203;SDS011;7185;51.854;6.622;2023-12-20T00:51:58;10.02;;;3.88;;
14203;SDS011;7185;51.854;6.622;2023-12-20T00:54:30;15.27;;;3.88;;
14203;SDS011;7185;51.854;6.622;2023-12-20T00:57:01;14.10;;;3.80;;
14203;SDS011;7185;51.854;6.622;2023-12-20T00:59:33;9.95;;;3.40;;
14203;SDS011;7185;51.854;6.622;2023-12-20T01:02:05;14.23;;;3.38;;
14203;SDS011;7185;51.854;6.622;2023-12-20T01:04:36;19.65;;;3.88;;
14203;SDS011;7185;51.854;6.622;2023-12-20T01:07:09;10.93;;;3.30;;
14203;SDS011;7185;51.854;6.622;2023-12-20T01:09:41;12.18;;;3.30;;
14203;SDS011;7185;51.854;6.622;2023-12-20T01:12:12;17.48;;;4.13;;
14203;SDS011;7185;51.854;6.622;2023-12-20T01:14:44;12.70;;;4.00;;
14203;SDS011;7185;51.854;6.622;2023-12-20T01:17:16;13.65;;;4.05;;
14203;SDS011;7185;51.854;6.622;2023-12-20T01:19:48;12.45;;;4.40;;
14203;SDS011;7185;51.854;6.622;2023-12-20T01:22:21;11.90;;;4.20;;
14203;SDS011;7185;51.854;6.622;2023-12-20T01:24:52;17.60;;;4.47;;
14203;SDS011;7185;51.854;6.622;2023-12-20T01:27:24;22.27;;;4.75;;
14203;SDS011;7185;51.854;6.622;2023-12-20T01:29:56;15.57;;;5.15;;
14203;SDS011;7185;51.854;6.622;2023-12-20T01:32:28;16.08;;;4.50;;
14203;SDS011;7185;51.854;6.622;2023-12-20T01:34:59;25.02;;;5.60;;
14203;SDS011;7185;51.854;6.622;2023-12-20T01:37:32;15.13;;;4.72;;
14203;SDS011;7185;51.854;6.622;2023-12-20T01:40:04;13.15;;;4.50;;
14203;SDS011;7185;51.854;6.622;2023-12-20T01:42:38;23.27;;;5.25;;
14203;SDS011;7185;51.854;6.622;2023-12-20T01:45:10;18.58;;;4.25;;
14203;SDS011;7185;51.854;6.622;2023-12-20T01:47:41;19.23;;;4.95;;
14203;SDS011;7185;51.854;6.622;2023-12-20T01:50:13;19.45;;;4.82;;
14203;SDS011;7185;51.854;6.622;2023-12-20T01:52:47;23.48;;;4.90;;
14203;SDS011;7185;51.854;6.622;2023-12-20T01:55:22;16.37;;;4.43;;
14203;SDS011;7185;51.854;6.622;2023-12-20T01:57:53;15.98;;;4.15;;
14203;SDS011;7185;51.854;6.622;2023-12-20T02:00:26;25.50;;;4.50;;
14203;SDS011;7185;51.854;6.622;2023-12-20T02:02:59;20.45;;;4.88;;
14203;SDS011;7185;51.854;6.622;2023-12-20T02:05:33;22.05;;;4.35;;
14203;SDS011;7185;51.854;6.622;2023-12-20T02:08:08;19.17;;;5.00;;
14203;SDS011;7185;51.854;6.622;2023-12-20T02:10:39;16.13;;;4.00;;
14203;SDS011;7185;51.854;6.622;2023-12-20T02:13:12;16.67;;;5.18;;
14203;SDS011;7185;51.854;6.622;2023-12-20T02:15:43;21.17;;;4.55;;
14203;SDS011;7185;51.854;6.622;2023-12-20T02:18:15;21.80;;;4.45;;
14203;SDS011;7185;51.854;6.622;2023-12-20T02:20:47;20.90;;;3.92;;
14203;SDS011;7185;51.854;6.622;2023-12-20T02:23:20;21.08;;;4.63;;
14203;SDS011;7185;51.854;6.622;2023-12-20T02:25:52;19.42;;;4.18;;
14203;SDS011;7185;51.854;6.622;2023-12-20T02:28:23;22.05;;;4.25;;
14203;SDS011;7185;51.854;6.622;2023-12-20T02:30:55;15.43;;;4.20;;
14203;SDS011;7185;51.854;6.622;2023-12-20T02:33:27;26.52;;;4.25;;
14203;SDS011;7185;51.854;6.622;2023-12-20T02:35:59;22.15;;;4.10;;
14203;SDS011;7185;51.854;6.622;2023-12-20T02:38:32;17.42;;;3.95;;
14203;SDS011;7185;51.854;6.622;2023-12-20T02:41:04;14.05;;;3.58;;
14203;SDS011;7185;51.854;6.622;2023-12-20T02:43:35;17.98;;;4.18;;
14203;SDS011;7185;51.854;6.622;2023-12-20T02:46:07;18.75;;;3.90;;
14203;SDS011;7185;51.854;6.622;2023-12-20T02:48:39;20.98;;;4.38;;
14203;SDS011;7185;51.854;6.622;2023-12-20T02:51:11;22.23;;;5.25;;
14203;SDS011;7185;51.854;6.622;2023-12-20T02:53:44;21.10;;;4.38;;
14203;SDS011;7185;51.854;6.622;2023-12-20T02:56:16;17.98;;;5.30;;
14203;SDS011;7185;51.854;6.622;2023-12-20T02:58:48;16.75;;;3.78;;
14203;SDS011;7185;51.854;6.622;2023-12-20T03:01:19;16.85;;;4.13;;
14203;SDS011;7185;51.854;6.622;2023-12-20T03:03:51;17.00;;;3.42;;
14203;SDS011;7185;51.854;6.622;2023-12-20T03:06:23;15.02;;;4.40;;
14203;SDS011;7185;51.854;6.622;2023-12-20T03:08:57;19.75;;;4.13;;
14203;SDS011;7185;51.854;6.622;2023-12-20T03:11:28;17.23;;;4.97;;
14203;SDS011;7185;51.854;6.622;2023-12-20T03:14:00;20.83;;;4.65;;
14203;SDS011;7185;51.854;6.622;2023-12-20T03:16:32;19.50;;;4.60;;
14203;SDS011;7185;51.854;6.622;2023-12-20T03:19:04;18.67;;;4.22;;
14203;SDS011;7185;51.854;6.622;2023-12-20T03:21:35;19.98;;;5.05;;
14203;SDS011;7185;51.854;6.622;2023-12-20T03:24:08;22.92;;;4.75;;
14203;SDS011;7185;51.854;6.622;2023-12-20T03:26:40;28.85;;;5.95;;
14203;SDS011;7185;51.854;6.622;2023-12-20T03:29:12;21.42;;;5.93;;
14203;SDS011;7185;51.854;6.622;2023-12-20T03:31:43;23.67;;;5.90;;
14203;SDS011;7185;51.854;6.622;2023-12-20T03:34:15;22.27;;;6.28;;
14203;SDS011;7185;51.854;6.622;2023-12-20T03:36:47;24.95;;;6.95;;
14203;SDS011;7185;51.854;6.622;2023-12-20T03:39:20;24.27;;;6.43;;
14203;SDS011;7185;51.854;6.622;2023-12-20T03:41:52;21.38;;;7.00;;
14203;SDS011;7185;51.854;6.622;2023-12-20T03:44:23;24.95;;;6.03;;
14203;SDS011;7185;51.854;6.622;2023-12-20T03:46:55;22.70;;;6.88;;
14203;SDS011;7185;51.854;6.622;2023-12-20T03:49:27;24.48;;;7.07;;
14203;SDS011;7185;51.854;6.622;2023-12-20T03:51:58;19.95;;;6.20;;
14203;SDS011;7185;51.854;6.622;2023-12-20T03:54:31;19.25;;;5.95;;
14203;SDS011;7185;51.854;6.622;2023-12-20T03:57:03;18.17;;;5.60;;
14203;SDS011;7185;51.854;6.622;2023-12-20T03:59:35;23.83;;;6.18;;
14203;SDS011;7185;51.854;6.622;2023-12-20T04:02:07;20.20;;;6.60;;
14203;SDS011;7185;51.854;6.622;2023-12-20T04:04:39;28.50;;;6.18;;
14203;SDS011;7185;51.854;6.622;2023-12-20T04:07:11;19.27;;;5.38;;
14203;SDS011;7185;51.854;6.622;2023-12-20T04:09:44;20.10;;;4.80;;
14203;SDS011;7185;51.854;6.622;2023-12-20T04:12:15;23.60;;;4.97;;
14203;SDS011;7185;51.854;6.622;2023-12-20T04:14:47;18.38;;;4.90;;
14203;SDS011;7185;51.854;6.622;2023-12-20T04:17:19;20.00;;;4.75;;
14203;SDS011;7185;51.854;6.622;2023-12-20T04:19:52;24.65;;;5.85;;
14203;SDS011;7185;51.854;6.622;2023-12-20T04:22:24;23.50;;;5.40;;
14203;SDS011;7185;51.854;6.622;2023-12-20T04:24:57;22.17;;;4.95;;
14203;SDS011;7185;51.854;6.622;2023-12-20T04:27:29;21.95;;;4.82;;
14203;SDS011;7185;51.854;6.622;2023-12-20T04:30:01;21.05;;;4.97;;
14203;SDS011;7185;51.854;6.622;2023-12-20T04:32:32;25.08;;;5.50;;
14203;SDS011;7185;51.854;6.622;2023-12-20T04:35:04;16.45;;;4.78;;
14203;SDS011;7185;51.854;6.622;2023-12-20T04:37:37;22.13;;;5.20;;
14203;SDS011;7185;51.854;6.622;2023-12-20T04:40:11;22.77;;;5.00;;
14203;SDS011;7185;51.854;6.622;2023-12-20T04:42:43;25.67;;;5.32;;
14203;SDS011;7185;51.854;6.622;2023-12-20T04:45:15;20.83;;;4.93;;
14203;SDS011;7185;51.854;6.622;2023-12-20T04:47:47;24.30;;;5.25;;
14203;SDS011;7185;51.854;6.622;2023-12-20T04:50:19;18.10;;;4.30;;
14203;SDS011;7185;51.854;6.622;2023-12-20T04:52:51;17.85;;;4.65;;
14203;SDS011;7185;51.854;6.622;2023-12-20T04:55:24;22.67;;;4.28;;
14203;SDS011;7185;51.854;6.622;2023-12-20T04:57:56;13.50;;;4.38;;
14203;SDS011;7185;51.854;6.622;2023-12-20T05:00:28;20.00;;;5.65;;
14203;SDS011;7185;51.854;6.622;2023-12-20T05:03:00;20.23;;;4.68;;
14203;SDS011;7185;51.854;6.622;2023-12-20T05:05:33;23.88;;;5.40;;
14203;SDS011;7185;51.854;6.622;2023-12-20T05:08:05;17.75;;;4.93;;
14203;SDS011;7185;51.854;6.622;2023-12-20T05:10:38;18.27;;;4.90;;
14203;SDS011;7185;51.854;6.622;2023-12-20T05:13:10;22.27;;;5.65;;
14203;SDS011;7185;51.854;6.622;2023-12-20T05:15:42;22.17;;;5.25;;
14203;SDS011;7185;51.854;6.622;2023-12-20T05:18:14;24.17;;;4.80;;
14203;SDS011;7185;51.854;6.622;2023-12-20T05:20:45;23.48;;;5.13;;
14203;SDS011;7185;51.854;6.622;2023-12-20T05:23:17;21.05;;;5.28;;
14203;SDS011;7185;51.854;6.622;2023-12-20T05:25:51;19.00;;;4.95;;
14203;SDS011;7185;51.854;6.622;2023-12-20T05:28:23;17.83;;;5.15;;
14203;SDS011;7185;51.854;6.622;2023-12-20T05:30:55;21.48;;;5.43;;
14203;SDS011;7185;51.854;6.622;2023-12-20T05:33:27;18.92;;;5.07;;
14203;SDS011;7185;51.854;6.622;2023-12-20T05:35:59;22.27;;;4.97;;
14203;SDS011;7185;51.854;6.622;2023-12-20T05:38:31;15.48;;;4.13;;
14203;SDS011;7185;51.854;6.622;2023-12-20T05:41:04;31.13;;;5.28;;
14203;SDS011;7185;51.854;6.622;2023-12-20T05:43:36;20.42;;;4.88;;
14203;SDS011;7185;51.854;6.622;2023-12-20T05:46:09;20.05;;;5.13;;
14203;SDS011;7185;51.854;6.622;2023-12-20T05:48:41;22.25;;;5.00;;
14203;SDS011;7185;51.854;6.622;2023-12-20T05:51:13;18.98;;;4.50;;
14203;SDS011;7185;51.854;6.622;2023-12-20T05:53:44;21.88;;;4.50;;
14203;SDS011;7185;51.854;6.622;2023-12-20T05:56:18;27.48;;;5.35;;
14203;SDS011;7185;51.854;6.622;2023-12-20T05:58:49;25.75;;;4.40;;
14203;SDS011;7185;51.854;6.622;2023-12-20T06:01:21;17.67;;;4.00;;
14203;SDS011;7185;51.854;6.622;2023-12-20T06:03:53;18.50;;;4.63;;
14203;SDS011;7185;51.854;6.622;2023-12-20T06:06:24;22.88;;;5.07;;
14203;SDS011;7185;51.854;6.622;2023-12-20T06:08:56;22.05;;;4.45;;
14203;SDS011;7185;51.854;6.622;2023-12-20T06:11:29;26.73;;;5.43;;
14203;SDS011;7185;51.854;6.622;2023-12-20T06:14:01;21.77;;;4.75;;
14203;SDS011;7185;51.854;6.622;2023-12-20T06:16:33;20.98;;;4.05;;
14203;SDS011;7185;51.854;6.622;2023-12-20T06:19:04;20.02;;;4.50;;
14203;SDS011;7185;51.854;6.622;2023-12-20T06:21:36;24.23;;;5.05;;
14203;SDS011;7185;51.854;6.622;2023-12-20T06:24:08;19.38;;;4.53;;
14203;SDS011;7185;51.854;6.622;2023-12-20T06:26:41;27.45;;;4.95;;
14203;SDS011;7185;51.854;6.622;2023-12-20T06:29:13;21.38;;;4.47;;
14203;SDS011;7185;51.854;6.622;2023-12-20T06:31:44;17.33;;;4.55;;
14203;SDS011;7185;51.854;6.622;2023-12-20T06:34:16;23.38;;;5.30;;
14203;SDS011;7185;51.854;6.622;2023-12-20T06:36:48;18.52;;;5.28;;
14203;SDS011;7185;51.854;6.622;2023-12-20T06:39:19;29.08;;;4.47;;
14203;SDS011;7185;51.854;6.622;2023-12-20T06:41:52;19.15;;;4.57;;
14203;SDS011;7185;51.854;6.622;2023-12-20T06:44:24;23.35;;;4.90;;
14203;SDS011;7185;51.854;6.622;2023-12-20T06:46:56;22.77;;;4.35;;
14203;SDS011;7185;51.854;6.622;2023-12-20T06:49:28;25.23;;;4.88;;
14203;SDS011;7185;51.854;6.622;2023-12-20T06:52:00;22.70;;;4.63;;
14203;SDS011;7185;51.854;6.622;2023-12-20T06:54:32;21.25;;;5.15;;
14203;SDS011;7185;51.854;6.622;2023-12-20T06:57:06;14.07;;;3.95;;
14203;SDS011;7185;51.854;6.622;2023-12-20T06:59:38;19.23;;;4.95;;
14203;SDS011;7185;51.854;6.622;2023-12-20T07:02:10;21.45;;;4.93;;
14203;SDS011;7185;51.854;6.622;2023-12-20T07:04:42;26.77;;;5.22;;
14203;SDS011;7185;51.854;6.622;2023-12-20T07:07:14;24.73;;;5.38;;
14203;SDS011;7185;51.854;6.622;2023-12-20T07:09:46;21.60;;;5.25;;
14203;SDS011;7185;51.854;6.622;2023-12-20T07:12:19;34.42;;;5.32;;
14203;SDS011;7185;51.854;6.622;2023-12-20T07:14:50;24.08;;;5.88;;
14203;SDS011;7185;51.854;6.622;2023-12-20T07:17:22;25.75;;;4.20;;
14203;SDS011;7185;51.854;6.622;2023-12-20T07:19:54;26.20;;;4.63;;
14203;SDS011;7185;51.854;6.622;2023-12-20T07:22:25;23.67;;;5.05;;
14203;SDS011;7185;51.854;6.622;2023-12-20T07:24:57;23.75;;;5.00;;
14203;SDS011;7185;51.854;6.622;2023-12-20T07:27:30;16.15;;;4.22;;
14203;SDS011;7185;51.854;6.622;2023-12-20T07:30:02;21.17;;;5.97;;
14203;SDS011;7185;51.854;6.622;2023-12-20T07:32:34;21.20;;;5.30;;
14203;SDS011;7185;51.854;6.622;2023-12-20T07:35:06;24.92;;;4.80;;
14203;SDS011;7185;51.854;6.622;2023-12-20T07:37:38;19.95;;;5.38;;
14203;SDS011;7185;51.854;6.622;2023-12-20T07:40:10;22.48;;;4.72;;
14203;SDS011;7185;51.854;6.622;2023-12-20T07:42:43;17.90;;;4.65;;
14203;SDS011;7185;51.854;6.622;2023-12-20T07:45:15;22.73;;;4.80;;
14203;SDS011;7185;51.854;6.622;2023-12-20T07:47:47;21.50;;;4.45;;
14203;SDS011;7185;51.854;6.622;2023-12-20T07:50:19;20.35;;;4.97;;
14203;SDS011;7185;51.854;6.622;2023-12-20T07:52:51;22.35;;;5.78;;
14203;SDS011;7185;51.854;6.622;2023-12-20T07:55:23;29.38;;;4.85;;
14203;SDS011;7185;51.854;6.622;2023-12-20T07:57:57;20.38;;;4.63;;
14203;SDS011;7185;51.854;6.622;2023-12-20T08:00:28;19.27;;;4.28;;
14203;SDS011;7185;51.854;6.622;2023-12-20T08:03:00;27.00;;;6.05;;
14203;SDS011;7185;51.854;6.622;2023-12-20T08:05:33;20.73;;;5.03;;
14203;SDS011;7185;51.854;6.622;2023-12-20T08:08:05;19.50;;;5.22;;
14203;SDS011;7185;51.854;6.622;2023-12-20T08:10:37;24.25;;;5.07;;
14203;SDS011;7185;51.854;6.622;2023-12-20T08:13:10;19.05;;;5.07;;
14203;SDS011;7185;51.854;6.622;2023-12-20T08:15:41;24.30;;;5.53;;
14203;SDS011;7185;51.854;6.622;2023-12-20T08:18:13;24.95;;;6.07;;
14203;SDS011;7185;51.854;6.622;2023-12-20T08:20:44;26.17;;;5.85;;
14203;SDS011;7185;51.854;6.622;2023-12-20T08:23:17;31.70;;;7.07;;
14203;SDS011;7185;51.854;6.622;2023-12-20T08:25:50;22.35;;;5.68;;
14203;SDS011;7185;51.854;6.622;2023-12-20T08:28:23;26.45;;;5.38;;
14203;SDS011;7185;51.854;6.622;2023-12-20T08:30:55;30.73;;;6.85;;
14203;SDS011;7185;51.854;6.622;2023-12-20T08:33:27;22.83;;;5.80;;
14203;SDS011;7185;51.854;6.622;2023-12-20T08:35:58;22.48;;;5.60;;
14203;SDS011;7185;51.854;6.622;2023-12-20T08:38:30;16.50;;;4.72;;
14203;SDS011;7185;51.854;6.622;2023-12-20T08:41:02;23.85;;;6.13;;
14203;SDS011;7185;51.854;6.622;2023-12-20T08:43:36;19.63;;;5.55;;
14203;SDS011;7185;51.854;6.622;2023-12-20T08:46:10;23.50;;;4.93;;
14203;SDS011;7185;51.854;6.622;2023-12-20T08:48:42;16.98;;;4.75;;
14203;SDS011;7185;51.854;6.622;2023-12-20T08:51:13;22.58;;;5.32;;
14203;SDS011;7185;51.854;6.622;2023-12-20T08:53:45;26.17;;;5.50;;
14203;SDS011;7185;51.854;6.622;2023-12-20T08:56:17;22.73;;;4.95;;
14203;SDS011;7185;51.854;6.622;2023-12-20T08:58:50;25.90;;;5.40;;
14203;SDS011;7185;51.854;6.622;2023-12-20T09:01:22;21.98;;;4.63;;
14203;SDS011;7185;51.854;6.622;2023-12-20T09:03:54;22.27;;;5.35;;
14203;SDS011;7185;51.854;6.622;2023-12-20T09:06:25;23.25;;;5.50;;
14203;SDS011;7185;51.854;6.622;2023-12-20T09:08:57;21.30;;;5.70;;
14203;SDS011;7185;51.854;6.622;2023-12-20T09:11:29;22.15;;;5.20;;
14203;SDS011;7185;51.854;6.622;2023-12-20T09:14:02;25.45;;;5.18;;
14203;SDS011;7185;51.854;6.622;2023-12-20T09:16:33;20.42;;;6.03;;
14203;SDS011;7185;51.854;6.622;2023-12-20T09:19:05;20.35;;;5.65;;
14203;SDS011;7185;51.854;6.622;2023-12-20T09:21:37;23.00;;;4.63;;
14203;SDS011;7185;51.854;6.622;2023-12-20T09:24:08;24.42;;;5.07;;
14203;SDS011;7185;51.854;6.622;2023-12-20T09:26:40;23.40;;;4.90;;
14203;SDS011;7185;51.854;6.622;2023-12-20T09:29:14;17.08;;;4.65;;
14203;SDS011;7185;51.854;6.622;2023-12-20T09:31:46;25.10;;;4.55;;
14203;SDS011;7185;51.854;6.622;2023-12-20T09:34:18;26.48;;;4.50;;
14203;SDS011;7185;51.854;6.622;2023-12-20T09:36:49;23.35;;;4.38;;
14203;SDS011;7185;51.854;6.622;2023-12-20T09:39:21;18.80;;;4.20;;
14203;SDS011;7185;51.854;6.622;2023-12-20T09:41:57;33.50;;;6.28;;
14203;SDS011;7185;51.854;6.622;2023-12-20T09:44:33;22.02;;;4.95;;
14203;SDS011;7185;51.854;6.622;2023-12-20T09:47:05;25.77;;;4.95;;
14203;SDS011;7185;51.854;6.622;2023-12-20T09:49:38;21.50;;;5.20;;
14203;SDS011;7185;51.854;6.622;2023-12-20T09:52:10;16.75;;;4.45;;
14203;SDS011;7185;51.854;6.622;2023-12-20T09:54:44;19.33;;;5.05;;
14203;SDS011;7185;51.854;6.622;2023-12-20T09:57:19;19.60;;;4.35;;
14203;SDS011;7185;51.854;6.622;2023-12-20T09:59:52;21.75;;;4.60;;
14203;SDS011;7185;51.854;6.622;2023-12-20T10:02:24;24.98;;;5.53;;
14203;SDS011;7185;51.854;6.622;2023-12-20T10:05:16;18.67;;;4.78;;
14203;SDS011;7185;51.854;6.622;2023-12-20T10:07:49;18.98;;;4.72;;
14203;SDS011;7185;51.854;6.622;2023-12-20T10:10:21;21.10;;;5.65;;
14203;SDS011;7185;51.854;6.622;2023-12-20T10:13:02;15.98;;;4.38;;
14203;SDS011;7185;51.854;6.622;2023-12-20T10:15:37;20.60;;;4.72;;
14203;SDS011;7185;51.854;6.622;2023-12-20T10:18:09;26.55;;;4.90;;
14203;SDS011;7185;51.854;6.622;2023-12-20T10:20:41;20.38;;;4.20;;
14203;SDS011;7185;51.854;6.622;2023-12-20T10:23:13;16.40;;;4.53;;
14203;SDS011;7185;51.854;6.622;2023-12-20T10:25:55;17.13;;;5.07;;
14203;SDS011;7185;51.854;6.622;2023-12-20T10:28:28;18.30;;;4.50;;
14203;SDS011;7185;51.854;6.622;2023-12-20T10:31:06;21.02;;;5.03;;
14203;SDS011;7185;51.854;6.622;2023-12-20T10:33:37;19.90;;;4.63;;
14203;SDS011;7185;51.854;6.622;2023-12-20T10:36:11;23.98;;;5.32;;
14203;SDS011;7185;51.854;6.622;2023-12-20T10:38:44;19.13;;;4.45;;
14203;SDS011;7185;51.854;6.622;2023-12-20T10:41:17;20.27;;;5.28;;
14203;SDS011;7185;51.854;6.622;2023-12-20T10:43:56;19.05;;;5.00;;
14203;SDS011;7185;51.854;6.622;2023-12-20T10:46:33;19.00;;;4.80;;
14203;SDS011;7185;51.854;6.622;2023-12-20T10:49:06;20.83;;;5.68;;
14203;SDS011;7185;51.854;6.622;2023-12-20T10:51:39;15.35;;;5.47;;
14203;SDS011;7185;51.854;6.622;2023-12-20T10:54:11;20.35;;;4.90;;
14203;SDS011;7185;51.854;6.622;2023-12-20T10:56:43;22.35;;;4.78;;
14203;SDS011;7185;51.854;6.622;2023-12-20T10:59:15;23.90;;;4.38;;
14203;SDS011;7185;51.854;6.622;2023-12-20T11:04:28;17.80;;;4.93;;
14203;SDS011;7185;51.854;6.622;2023-12-20T11:07:08;15.48;;;4.60;;
14203;SDS011;7185;51.854;6.622;2023-12-20T11:09:51;15.45;;;4.72;;
14203;SDS011;7185;51.854;6.622;2023-12-20T11:12:32;17.10;;;4.60;;
14203;SDS011;7185;51.854;6.622;2023-12-20T11:15:09;18.80;;;5.03;;
14203;SDS011;7185;51.854;6.622;2023-12-20T11:17:45;17.45;;;5.10;;
14203;SDS011;7185;51.854;6.622;2023-12-20T11:20:17;18.50;;;4.72;;
14203;SDS011;7185;51.854;6.622;2023-12-20T11:22:52;18.83;;;4.97;;
14203;SDS011;7185;51.854;6.622;2023-12-20T11:25:24;21.83;;;5.22;;
14203;SDS011;7185;51.854;6.622;2023-12-20T11:28:09;19.25;;;4.90;;
14203;SDS011;7185;51.854;6.622;2023-12-20T11:30:42;28.48;;;4.70;;
14203;SDS011;7185;51.854;6.622;2023-12-20T11:33:22;25.00;;;4.82;;
14203;SDS011;7185;51.854;6.622;2023-12-20T11:38:27;17.13;;;5.13;;
14203;SDS011;7185;51.854;6.622;2023-12-20T11:40:58;20.83;;;4.95;;
14203;SDS011;7185;51.854;6.622;2023-12-20T11:43:34;18.75;;;4.82;;
14203;SDS011;7185;51.854;6.622;2023-12-20T11:46:07;17.92;;;4.57;;
14203;SDS011;7185;51.854;6.622;2023-12-20T11:48:41;13.48;;;4.57;;
14203;SDS011;7185;51.854;6.622;2023-12-20T11:51:16;23.67;;;5.35;;
14203;SDS011;7185;51.854;6.622;2023-12-20T11:53:51;22.05;;;5.00;;
14203;SDS011;7185;51.854;6.622;2023-12-20T11:56:23;17.30;;;5.30;;
14203;SDS011;7185;51.854;6.622;2023-12-20T11:58:55;18.60;;;5.00;;
14203;SDS011;7185;51.854;6.622;2023-12-20T12:01:27;17.08;;;5.55;;
14203;SDS011;7185;51.854;6.622;2023-12-20T12:04:03;16.15;;;4.85;;
14203;SDS011;7185;51.854;6.622;2023-12-20T12:06:35;19.70;;;5.53;;
14203;SDS011;7185;51.854;6.622;2023-12-20T12:09:07;17.02;;;5.30;;
14203;SDS011;7185;51.854;6.622;2023-12-20T12:11:38;23.20;;;5.25;;
14203;SDS011;7185;51.854;6.622;2023-12-20T12:14:10;21.92;;;5.05;;
14203;SDS011;7185;51.854;6.622;2023-12-20T12:16:42;17.88;;;4.80;;
14203;SDS011;7185;51.854;6.622;2023-12-20T12:19:22;24.48;;;4.93;;
14203;SDS011;7185;51.854;6.622;2023-12-20T12:22:03;24.60;;;4.97;;
14203;SDS011;7185;51.854;6.622;2023-12-20T12:24:37;21.90;;;4.88;;
14203;SDS011;7185;51.854;6.622;2023-12-20T12:27:09;21.25;;;5.03;;
14203;SDS011;7185;51.854;6.622;2023-12-20T12:29:43;17.25;;;4.55;;
14203;SDS011;7185;51.854;6.622;2023-12-20T12:32:31;18.80;;;4.85;;
14203;SDS011;7185;51.854;6.622;2023-12-20T12:35:05;20.58;;;4.70;;
14203;SDS011;7185;51.854;6.622;2023-12-20T12:37:39;20.23;;;4.55;;
14203;SDS011;7185;51.854;6.622;2023-12-20T12:40:12;16.60;;;4.05;;
14203;SDS011;7185;51.854;6.622;2023-12-20T12:42:45;16.23;;;4.78;;
14203;SDS011;7185;51.854;6.622;2023-12-20T12:45:17;22.42;;;4.90;;
14203;SDS011;7185;51.854;6.622;2023-12-20T12:47:49;18.30;;;4.30;;
14203;SDS011;7185;51.854;6.622;2023-12-20T12:50:22;23.42;;;4.82;;
14203;SDS011;7185;51.854;6.622;2023-12-20T12:52:53;22.13;;;5.00;;
14203;SDS011;7185;51.854;6.622;2023-12-20T12:55:25;19.77;;;4.90;;
14203;SDS011;7185;51.854;6.622;2023-12-20T12:57:57;20.55;;;5.60;;
14203;SDS011;7185;51.854;6.622;2023-12-20T13:00:28;19.75;;;4.78;;
14203;SDS011;7185;51.854;6.622;2023-12-20T13:03:00;19.77;;;5.38;;
14203;SDS011;7185;51.854;6.622;2023-12-20T13:05:33;19.88;;;4.57;;
14203;SDS011;7185;51.854;6.622;2023-12-20T13:08:05;19.25;;;4.95;;
14203;SDS011;7185;51.854;6.622;2023-12-20T13:10:37;12.23;;;4.22;;
14203;SDS011;7185;51.854;6.622;2023-12-20T13:13:09;15.38;;;4.05;;
14203;SDS011;7185;51.854;6.622;2023-12-20T13:15:41;18.05;;;4.72;;
14203;SDS011;7185;51.854;6.622;2023-12-20T13:18:12;15.85;;;4.20;;
14203;SDS011;7185;51.854;6.622;2023-12-20T13:20:45;38.17;;;4.78;;
14203;SDS011;7185;51.854;6.622;2023-12-20T13:23:17;19.17;;;5.45;;
14203;SDS011;7185;51.854;6.622;2023-12-20T13:25:49;18.98;;;4.30;;
14203;SDS011;7185;51.854;6.622;2023-12-20T13:28:21;18.42;;;4.93;;
14203;SDS011;7185;51.854;6.622;2023-12-20T13:30:52;24.05;;;5.10;;
14203;SDS011;7185;51.854;6.622;2023-12-20T13:33:24;19.25;;;4.70;;
14203;SDS011;7185;51.854;6.622;2023-12-20T13:35:57;23.27;;;4.68;;
14203;SDS011;7185;51.854;6.622;2023-12-20T13:38:29;21.15;;;4.80;;
14203;SDS011;7185;51.854;6.622;2023-12-20T13:41:01;17.38;;;4.45;;
14203;SDS011;7185;51.854;6.622;2023-12-20T13:43:33;23.38;;;4.93;;
14203;SDS011;7185;51.854;6.622;2023-12-20T13:46:06;25.13;;;5.68;;
14203;SDS011;7185;51.854;6.622;2023-12-20T13:48:38;14.48;;;5.68;;
14203;SDS011;7185;51.854;6.622;2023-12-20T13:51:11;19.23;;;4.45;;
14203;SDS011;7185;51.854;6.622;2023-12-20T13:53:43;18.80;;;5.72;;
14203;SDS011;7185;51.854;6.622;2023-12-20T13:56:15;23.30;;;5.53;;
14203;SDS011;7185;51.854;6.622;2023-12-20T13:58:46;17.15;;;6.30;;
14203;SDS011;7185;51.854;6.622;2023-12-20T14:01:18;16.45;;;5.57;;
14203;SDS011;7185;51.854;6.622;2023-12-20T14:03:50;24.75;;;6.15;;
14203;SDS011;7185;51.854;6.622;2023-12-20T14:06:23;25.88;;;6.30;;
14203;SDS011;7185;51.854;6.622;2023-12-20T14:08:55;21.83;;;6.13;;
14203;SDS011;7185;51.854;6.622;2023-12-20T14:11:26;22.40;;;5.78;;
14203;SDS011;7185;51.854;6.622;2023-12-20T14:13:58;19.83;;;6.03;;
14203;SDS011;7185;51.854;6.622;2023-12-20T14:16:32;20.45;;;5.72;;
14203;SDS011;7185;51.854;6.622;2023-12-20T14:19:03;23.70;;;6.85;;
14203;SDS011;7185;51.854;6.622;2023-12-20T14:21:38;21.23;;;6.38;;
14203;SDS011;7185;51.854;6.622;2023-12-20T14:24:10;18.25;;;5.95;;
14203;SDS011;7185;51.854;6.622;2023-12-20T14:26:43;24.30;;;6.00;;
14203;SDS011;7185;51.854;6.622;2023-12-20T14:29:15;19.40;;;6.63;;
14203;SDS011;7185;51.854;6.622;2023-12-20T14:31:47;23.63;;;7.07;;
14203;SDS011;7185;51.854;6.622;2023-12-20T14:34:19;26.30;;;6.82;;
14203;SDS011;7185;51.854;6.622;2023-12-20T14:36:52;16.98;;;6.72;;
14203;SDS011;7185;51.854;6.622;2023-12-20T14:39:24;22.73;;;6.88;;
14203;SDS011;7185;51.854;6.622;2023-12-20T14:41:56;21.33;;;7.03;;
14203;SDS011;7185;51.854;6.622;2023-12-20T14:44:27;26.75;;;7.00;;
14203;SDS011;7185;51.854;6.622;2023-12-20T14:46:59;20.48;;;6.47;;
14203;SDS011;7185;51.854;6.622;2023-12-20T14:49:32;19.75;;;7.25;;
14203;SDS011;7185;51.854;6.622;2023-12-20T14:52:05;18.23;;;6.75;;
14203;SDS011;7185;51.854;6.622;2023-12-20T14:54:37;25.05;;;7.88;;
14203;SDS011;7185;51.854;6.622;2023-12-20T14:57:09;23.10;;;8.07;;
14203;SDS011;7185;51.854;6.622;2023-12-20T14:59:40;26.02;;;8.43;;
14203;SDS011;7185;51.854;6.622;2023-12-20T15:02:13;25.00;;;7.50;;
14203;SDS011;7185;51.854;6.622;2023-12-20T15:04:45;20.35;;;7.63;;
14203;SDS011;7185;51.854;6.622;2023-12-20T15:07:18;21.50;;;7.50;;
14203;SDS011;7185;51.854;6.622;2023-12-20T15:09:50;23.00;;;8.40;;
14203;SDS011;7185;51.854;6.622;2023-12-20T15:12:22;24.45;;;8.50;;
14203;SDS011;7185;51.854;6.622;2023-12-20T15:14:54;23.70;;;7.80;;
14203;SDS011;7185;51.854;6.622;2023-12-20T15:17:26;23.88;;;8.35;;
14203;SDS011;7185;51.854;6.622;2023-12-20T15:19:58;25.33;;;8.10;;
14203;SDS011;7185;51.854;6.622;2023-12-20T15:22:31;22.35;;;7.63;;
14203;SDS011;7185;51.854;6.622;2023-12-20T15:25:04;27.60;;;8.10;;